Time;durP1;ratioP1;P1;durP2;ratioP2;P2;SDS_P1;SDS_P2;PMS_P1;PMS_P2;Temp;Humidity;BMP_temperature;BMP_pressure;BME280_temperature;BME280_humidity;BME280_pressure;Samples;Min_cycle;Max_cycle;Signal;HPM_P1;HPM_P2
2022/03/31 00:02:15;;;;;;;9.93;3.78;;;20.50;99.90;;;;;;5070114;28;20254;-73
2022/03/31 00:04:48;;;;;;;13.80;3.97;;;20.50;99.90;;;;;;5071956;28;20275;-73
2022/03/31 00:07:18;;;;;;;9.27;4.13;;;20.50;99.90;;;;;;5070609;28;20192;-77
2022/03/31 00:09:49;;;;;;;9.88;3.92;;;20.50;99.90;;;;;;5068773;28;20684;-73
2022/03/31 00:12:20;;;;;;;9.90;4.05;;;20.40;99.90;;;;;;5074954;28;20193;-74
2022/03/31 00:14:50;;;;;;;12.13;3.92;;;20.40;99.90;;;;;;5069547;28;20196;-86
2022/03/31 00:17:21;;;;;;;11.57;4.47;;;20.30;99.90;;;;;;5073838;28;20641;-85
2022/03/31 00:19:54;;;;;;;10.68;4.28;;;20.30;99.90;;;;;;5069999;28;20189;-89
2022/03/31 00:22:27;;;;;;;8.48;4.28;;;20.20;99.90;;;;;;5072926;28;20186;-91
2022/03/31 00:24:58;;;;;;;8.13;3.90;;;20.10;99.90;;;;;;5071901;28;20193;-92
2022/03/31 00:27:28;;;;;;;9.32;4.50;;;20.00;99.90;;;;;;5073107;28;20219;-87
2022/03/31 00:30:00;;;;;;;11.48;4.40;;;19.90;99.90;;;;;;5074366;28;20217;-90
2022/03/31 00:32:30;;;;;;;10.35;4.55;;;20.00;99.90;;;;;;5072641;28;20194;-86
2022/03/31 00:35:03;;;;;;;11.25;4.28;;;20.10;99.90;;;;;;5077291;28;20188;-83
2022/03/31 00:37:34;;;;;;;11.57;4.00;;;20.10;99.90;;;;;;5077145;28;20189;-85
2022/03/31 00:40:05;;;;;;;9.40;4.20;;;20.30;99.90;;;;;;5087130;28;20227;-86
2022/03/31 00:42:43;;;;;;;9.50;4.28;;;20.40;99.90;;;;;;5081529;28;20193;-86
2022/03/31 00:45:18;;;;;;;8.82;3.90;;;20.40;99.90;;;;;;5075998;28;20196;-88
2022/03/31 00:47:49;;;;;;;10.13;4.20;;;20.40;99.90;;;;;;5081280;28;20180;-89
2022/03/31 00:50:23;;;;;;;10.10;3.80;;;20.40;99.90;;;;;;5077393;28;20213;-83
2022/03/31 00:52:54;;;;;;;9.38;3.70;;;20.40;99.90;;;;;;5080571;28;20184;-89
2022/03/31 00:55:25;;;;;;;9.93;3.63;;;20.40;99.90;;;;;;5083300;28;20691;-85
2022/03/31 00:57:57;;;;;;;8.02;3.63;;;20.40;99.90;;;;;;5076127;28;20636;-88
2022/03/31 01:00:29;;;;;;;9.32;3.50;;;20.40;99.90;;;;;;5075541;28;20644;-89
2022/03/31 01:03:00;;;;;;;6.72;2.63;;;20.40;99.90;;;;;;5076141;28;20691;-86
2022/03/31 01:05:32;;;;;;;6.70;2.40;;;20.30;99.90;;;;;;5084038;28;20525;-89
2022/03/31 01:08:03;;;;;;;4.43;2.30;;;20.20;99.90;;;;;;5073843;28;20189;-86
2022/03/31 01:10:33;;;;;;;5.13;2.55;;;20.20;99.90;;;;;;5077506;28;20235;-89
2022/03/31 01:13:08;;;;;;;4.10;2.45;;;20.20;99.90;;;;;;5077676;28;20185;-88
2022/03/31 01:15:38;;;;;;;5.53;2.65;;;20.10;99.90;;;;;;5074848;28;20184;-86
2022/03/31 01:18:10;;;;;;;6.13;2.70;;;20.10;99.90;;;;;;5079676;28;20649;-83
2022/03/31 01:20:43;;;;;;;5.95;3.10;;;20.10;99.90;;;;;;5077670;28;20216;-85
2022/03/31 01:23:16;;;;;;;6.05;3.47;;;20.20;99.90;;;;;;5077298;28;20187;-92
2022/03/31 01:25:47;;;;;;;8.98;3.47;;;20.20;99.90;;;;;;5075898;28;20263;-89
2022/03/31 01:28:18;;;;;;;8.93;3.25;;;20.30;99.90;;;;;;5077164;28;20193;-89
2022/03/31 01:30:49;;;;;;;9.70;3.40;;;20.30;99.90;;;;;;5076057;28;20263;-89
2022/03/31 01:33:19;;;;;;;10.77;3.15;;;20.40;99.90;;;;;;5074798;28;20189;-84
2022/03/31 01:35:53;;;;;;;11.38;3.70;;;20.50;99.90;;;;;;5078400;28;20193;-87
2022/03/31 01:38:26;;;;;;;16.08;4.28;;;20.50;99.90;;;;;;5075049;28;20221;-88
2022/03/31 01:40:56;;;;;;;14.50;3.80;;;20.40;99.90;;;;;;5082171;28;20698;-88
2022/03/31 01:43:27;;;;;;;17.02;4.15;;;20.30;99.90;;;;;;5079351;28;20185;-89
2022/03/31 01:45:58;;;;;;;13.63;3.67;;;20.30;99.90;;;;;;5076087;28;20197;-88
2022/03/31 01:48:29;;;;;;;15.70;3.88;;;20.20;99.90;;;;;;5076377;28;20228;-81
2022/03/31 01:51:00;;;;;;;14.05;4.13;;;20.10;99.90;;;;;;5075289;28;20219;-88
2022/03/31 01:53:32;;;;;;;15.15;4.10;;;20.00;99.90;;;;;;5075585;28;20201;-85
2022/03/31 01:56:03;;;;;;;13.00;3.53;;;20.00;99.90;;;;;;5074098;28;20225;-88
2022/03/31 01:58:33;;;;;;;10.40;3.05;;;19.90;99.90;;;;;;5075133;28;20224;-85
2022/03/31 02:01:04;;;;;;;12.75;3.40;;;19.80;99.90;;;;;;5075861;28;20214;-82
2022/03/31 02:03:35;;;;;;;17.80;3.72;;;19.70;99.90;;;;;;5074019;28;20181;-87
2022/03/31 02:06:06;;;;;;;21.42;3.90;;;19.60;99.90;;;;;;5072735;28;20232;-81
2022/03/31 02:08:39;;;;;;;20.02;4.20;;;19.40;99.90;;;;;;5073916;28;20652;-86
2022/03/31 02:11:09;;;;;;;22.67;4.60;;;19.10;99.90;;;;;;5076847;28;20231;-84
2022/03/31 02:13:40;;;;;;;23.23;4.80;;;19.00;99.90;;;;;;5073105;28;20188;-81
2022/03/31 02:16:11;;;;;;;16.65;4.53;;;18.80;99.90;;;;;;5076048;28;20189;-82
2022/03/31 02:18:42;;;;;;;28.15;5.45;;;18.80;99.90;;;;;;5073335;28;20185;-76
2022/03/31 02:21:13;;;;;;;24.48;4.57;;;18.80;99.90;;;;;;5078087;28;20584;-85
2022/03/31 02:23:47;;;;;;;20.73;3.88;;;18.70;99.90;;;;;;5078460;28;20185;-83
2022/03/31 02:26:17;;;;;;;23.13;4.85;;;18.70;99.90;;;;;;5076287;28;20184;-79
2022/03/31 02:28:48;;;;;;;22.95;4.47;;;18.80;99.90;;;;;;5078875;28;20306;-79
2022/03/31 02:31:19;;;;;;;29.30;5.40;;;18.90;99.90;;;;;;5073401;28;20581;-77
2022/03/31 02:33:49;;;;;;;21.00;4.10;;;19.00;99.90;;;;;;5078392;28;20185;-75
2022/03/31 02:36:20;;;;;;;17.65;3.67;;;19.00;99.90;;;;;;5075299;28;20542;-76
2022/03/31 02:38:53;;;;;;;18.05;3.92;;;19.10;99.90;;;;;;5071894;28;20225;-76
2022/03/31 02:41:23;;;;;;;18.80;4.28;;;19.40;99.90;;;;;;5073560;28;20189;-76
2022/03/31 02:43:54;;;;;;;20.38;3.97;;;19.60;99.90;;;;;;5075444;28;20600;-80
2022/03/31 02:46:27;;;;;;;20.48;4.10;;;19.90;99.90;;;;;;5071675;28;20184;-75
2022/03/31 02:48:58;;;;;;;14.98;2.85;;;19.90;99.90;;;;;;5073606;28;20228;-75
2022/03/31 02:51:30;;;;;;;17.77;3.17;;;19.90;99.90;;;;;;5081126;28;20216;-76
2022/03/31 02:56:49;;;;;;;25.48;3.85;;;19.10;99.90;;;;;;5069849;28;20338;-75
2022/03/31 02:59:20;;;;;;;16.75;3.20;;;19.00;99.90;;;;;;5072663;28;20185;-77
2022/03/31 03:01:51;;;;;;;16.90;3.58;;;18.90;99.90;;;;;;5070505;28;20542;-78
2022/03/31 03:04:22;;;;;;;24.10;4.32;;;18.90;99.90;;;;;;5070576;28;20181;-74
2022/03/31 03:06:53;;;;;;;24.05;4.82;;;19.00;99.90;;;;;;5072082;28;20211;-75
2022/03/31 03:09:25;;;;;;;26.58;4.47;;;19.10;99.90;;;;;;5069050;28;20243;-74
2022/03/31 03:11:56;;;;;;;32.38;4.90;;;19.10;99.90;;;;;;5078557;28;20585;-75
2022/03/31 03:14:27;;;;;;;26.73;4.50;;;19.20;99.90;;;;;;5072114;28;20662;-75
2022/03/31 03:16:57;;;;;;;27.35;4.72;;;19.20;99.90;;;;;;5069136;28;20200;-75
2022/03/31 03:19:28;;;;;;;31.27;4.72;;;19.30;99.90;;;;;;5072872;28;20196;-75
2022/03/31 03:21:59;;;;;;;32.45;5.25;;;19.40;99.90;;;;;;5070571;28;20192;-75
2022/03/31 03:24:32;;;;;;;26.42;4.72;;;19.50;99.90;;;;;;5074372;28;20200;-75
2022/03/31 03:27:02;;;;;;;21.08;4.45;;;19.50;99.90;;;;;;5079760;28;20193;-75
2022/03/31 03:29:33;;;;;;;21.45;4.00;;;19.50;99.90;;;;;;5074166;28;20185;-75
2022/03/31 03:32:04;;;;;;;23.23;4.32;;;19.40;99.90;;;;;;5082961;28;20209;-75
2022/03/31 03:34:35;;;;;;;23.08;4.30;;;19.40;99.90;;;;;;5083912;28;20238;-75
2022/03/31 03:37:06;;;;;;;23.33;3.67;;;19.50;99.90;;;;;;5084560;28;20189;-73
2022/03/31 03:39:39;;;;;;;23.73;3.78;;;19.50;99.90;;;;;;5077864;28;20239;-75
2022/03/31 03:42:10;;;;;;;22.15;3.42;;;19.50;99.90;;;;;;5081961;28;20230;-75
2022/03/31 03:44:41;;;;;;;21.05;3.70;;;19.50;99.90;;;;;;5074886;28;20560;-75
2022/03/31 03:47:12;;;;;;;16.45;3.30;;;19.60;99.90;;;;;;5088701;28;20283;-76
2022/03/31 03:49:43;;;;;;;22.90;3.80;;;19.70;99.90;;;;;;5073357;28;20250;-77
2022/03/31 03:52:13;;;;;;;24.20;3.83;;;19.90;99.90;;;;;;5081923;28;20219;-74
2022/03/31 03:54:46;;;;;;;19.08;3.42;;;20.00;99.90;;;;;;5069451;28;20181;-76
2022/03/31 03:57:17;;;;;;;19.17;3.20;;;20.10;99.90;;;;;;5071103;28;20626;-75
2022/03/31 03:59:47;;;;;;;22.55;3.53;;;20.20;99.90;;;;;;5067743;28;20265;-75
2022/03/31 04:02:18;;;;;;;22.00;3.47;;;20.30;99.90;;;;;;5078922;28;20655;-78
2022/03/31 04:04:49;;;;;;;21.77;3.20;;;20.30;99.90;;;;;;5062411;28;20656;-76
2022/03/31 04:07:19;;;;;;;25.45;3.67;;;20.40;99.90;;;;;;5079850;28;20196;-75
2022/03/31 04:09:52;;;;;;;18.08;3.00;;;20.30;99.90;;;;;;5077050;28;20184;-76
2022/03/31 04:12:23;;;;;;;18.75;3.30;;;20.10;99.90;;;;;;5071299;28;20710;-75
2022/03/31 04:14:53;;;;;;;20.98;3.50;;;19.80;99.90;;;;;;5073530;28;20615;-76
2022/03/31 04:17:24;;;;;;;21.58;3.72;;;19.60;99.90;;;;;;5074761;28;20298;-74
2022/03/31 04:19:55;;;;;;;23.30;3.72;;;19.60;99.90;;;;;;5074293;28;20184;-76
2022/03/31 04:22:25;;;;;;;26.50;4.90;;;19.60;99.90;;;;;;5073966;28;20189;-74
2022/03/31 04:24:58;;;;;;;31.65;4.95;;;19.70;99.90;;;;;;5073655;28;20569;-74
2022/03/31 04:27:29;;;;;;;25.40;4.20;;;19.60;99.90;;;;;;5083906;28;20192;-77
2022/03/31 04:30:00;;;;;;;27.05;4.45;;;19.40;99.90;;;;;;5089051;28;20196;-76
2022/03/31 04:32:31;;;;;;;29.92;4.88;;;19.20;99.90;;;;;;5086591;28;20612;-77
2022/03/31 04:35:01;;;;;;;28.52;4.18;;;19.10;99.90;;;;;;5079306;28;20640;-76
2022/03/31 04:37:32;;;;;;;28.60;3.95;;;19.20;99.90;;;;;;5072368;28;20596;-76
2022/03/31 04:40:05;;;;;;;27.58;4.18;;;19.30;99.90;;;;;;5088263;28;20228;-76
2022/03/31 04:42:36;;;;;;;23.95;4.00;;;19.30;99.90;;;;;;5080582;28;20265;-76
2022/03/31 04:45:07;;;;;;;25.45;4.13;;;19.40;99.90;;;;;;5073717;28;20197;-76
2022/03/31 04:47:38;;;;;;;21.77;3.72;;;19.60;99.90;;;;;;5075392;28;20254;-76
2022/03/31 04:50:10;;;;;;;21.48;3.38;;;19.80;99.90;;;;;;5080275;28;20204;-78
2022/03/31 04:52:40;;;;;;;19.67;3.22;;;20.10;99.90;;;;;;5083505;28;20209;-76
2022/03/31 04:55:13;;;;;;;22.73;3.30;;;20.30;99.90;;;;;;5077033;28;20221;-76
2022/03/31 04:57:44;;;;;;;19.35;3.85;;;20.40;99.90;;;;;;5075570;28;20197;-75
2022/03/31 05:00:15;;;;;;;20.70;3.33;;;20.50;99.90;;;;;;5086530;28;20202;-76
2022/03/31 05:02:46;;;;;;;20.70;3.38;;;20.70;99.90;;;;;;5080547;28;20682;-77
2022/03/31 05:05:17;;;;;;;15.20;2.88;;;20.60;99.90;;;;;;5080114;28;20201;-77
2022/03/31 05:07:47;;;;;;;16.50;2.70;;;20.50;99.90;;;;;;5079399;28;20189;-76
2022/03/31 05:10:20;;;;;;;17.20;2.78;;;20.40;99.90;;;;;;5086270;28;20188;-77
2022/03/31 05:12:51;;;;;;;24.10;3.25;;;20.30;99.90;;;;;;5078347;28;20721;-77
2022/03/31 05:15:22;;;;;;;18.27;2.88;;;20.30;99.90;;;;;;5086415;28;20548;-76
2022/03/31 05:17:52;;;;;;;15.57;2.50;;;20.40;99.90;;;;;;5072638;28;20197;-76
2022/03/31 05:20:23;;;;;;;17.60;3.25;;;20.40;99.90;;;;;;5079929;28;20200;-75
2022/03/31 05:22:54;;;;;;;21.30;3.08;;;20.40;99.90;;;;;;5074274;28;20243;-80
2022/03/31 05:25:27;;;;;;;21.55;2.95;;;20.50;99.90;;;;;;5069129;28;20207;-75
2022/03/31 05:27:58;;;;;;;19.17;2.95;;;20.40;99.90;;;;;;5081243;28;20196;-79
2022/03/31 05:30:29;;;;;;;14.88;2.63;;;20.40;99.90;;;;;;5079370;28;20225;-84
2022/03/31 05:33:00;;;;;;;16.52;2.40;;;20.30;99.90;;;;;;5077709;28;20227;-81
2022/03/31 05:35:30;;;;;;;19.45;3.38;;;20.00;99.90;;;;;;5089746;28;20237;-78
2022/03/31 05:38:01;;;;;;;19.77;3.42;;;19.60;99.90;;;;;;5084116;28;20237;-76
2022/03/31 05:40:34;;;;;;;16.65;2.95;;;19.20;99.90;;;;;;5089229;28;20227;-76
2022/03/31 05:43:05;;;;;;;16.05;2.80;;;19.00;99.90;;;;;;5083536;28;20250;-77
2022/03/31 05:45:35;;;;;;;24.67;3.00;;;18.90;99.90;;;;;;5084462;28;20185;-78
2022/03/31 05:48:06;;;;;;;17.63;2.70;;;18.80;99.90;;;;;;5074566;28;20185;-77
2022/03/31 05:50:37;;;;;;;18.55;2.70;;;18.80;99.90;;;;;;5082535;28;20633;-76
2022/03/31 05:53:08;;;;;;;20.48;2.78;;;18.80;99.90;;;;;;5069468;28;20262;-77
2022/03/31 05:55:40;;;;;;;12.57;1.92;;;18.80;99.90;;;;;;5074852;28;20265;-76
2022/03/31 05:58:12;;;;;;;11.80;1.88;;;18.50;99.90;;;;;;5083681;28;20223;-79
2022/03/31 06:00:42;;;;;;;12.70;2.03;;;18.50;99.90;;;;;;5089135;28;20260;-76
2022/03/31 06:03:13;;;;;;;12.95;2.10;;;18.30;99.90;;;;;;5079496;28;20197;-77
2022/03/31 06:05:44;;;;;;;11.68;1.80;;;18.30;99.90;;;;;;5076189;28;20197;-77
2022/03/31 06:08:15;;;;;;;11.75;2.28;;;18.30;99.90;;;;;;5081127;28;20189;-76
2022/03/31 06:10:48;;;;;;;12.27;2.08;;;18.30;99.90;;;;;;5083619;28;20188;-78
2022/03/31 06:13:19;;;;;;;12.82;2.40;;;18.20;99.90;;;;;;5071314;28;20245;-79
2022/03/31 06:15:49;;;;;;;13.00;2.03;;;17.90;99.90;;;;;;5071504;28;20201;-75
2022/03/31 06:18:21;;;;;;;18.63;2.53;;;17.70;99.90;;;;;;5089236;28;20606;-77
2022/03/31 06:20:52;;;;;;;9.88;1.90;;;17.50;99.90;;;;;;5072757;28;20196;-77
2022/03/31 06:23:23;;;;;;;14.27;2.38;;;17.40;99.90;;;;;;5069490;28;20210;-77
2022/03/31 06:25:56;;;;;;;16.20;2.45;;;17.40;99.90;;;;;;5061327;28;20277;-77
2022/03/31 06:28:28;;;;;;;14.90;2.40;;;17.40;99.90;;;;;;5071955;28;20189;-76
2022/03/31 06:31:00;;;;;;;13.70;2.03;;;17.40;99.90;;;;;;5072879;28;20287;-78
2022/03/31 06:33:30;;;;;;;13.57;1.90;;;17.40;99.90;;;;;;5076275;28;20687;-75
2022/03/31 06:36:01;;;;;;;14.32;2.30;;;17.40;99.90;;;;;;5080280;28;20196;-78
2022/03/31 06:38:32;;;;;;;14.80;2.67;;;17.40;99.90;;;;;;5071405;28;20232;-77
2022/03/31 06:41:10;;;;;;;18.45;3.20;;;17.30;99.90;;;;;;5072028;28;20384;-78
2022/03/31 06:43:41;;;;;;;20.10;2.58;;;17.20;99.90;;;;;;5082156;28;20223;-76
2022/03/31 06:46:12;;;;;;;12.68;2.60;;;17.10;99.90;;;;;;5076078;28;20192;-77
2022/03/31 06:48:46;;;;;;;15.55;2.30;;;17.10;99.90;;;;;;5073976;28;20196;-78
2022/03/31 06:51:18;;;;;;;15.18;2.58;;;17.10;99.90;;;;;;5071192;28;20184;-79
2022/03/31 06:53:49;;;;;;;20.08;2.65;;;17.10;99.90;;;;;;5073720;28;20180;-78
2022/03/31 06:56:23;;;;;;;18.70;2.95;;;17.10;99.90;;;;;;5077225;28;20216;-76
2022/03/31 06:58:53;;;;;;;18.17;3.13;;;17.10;99.90;;;;;;5063987;28;20251;-77
2022/03/31 07:01:24;;;;;;;20.55;2.92;;;17.10;99.90;;;;;;5073382;28;20246;-77
2022/03/31 07:03:55;;;;;;;20.27;3.13;;;17.20;99.90;;;;;;5063907;28;20554;-80
2022/03/31 07:06:26;;;;;;;24.15;3.63;;;17.30;99.90;;;;;;5079850;28;20543;-78
2022/03/31 07:08:57;;;;;;;17.30;2.45;;;17.40;99.90;;;;;;5083958;28;20180;-77
2022/03/31 07:11:29;;;;;;;29.83;3.55;;;17.60;99.90;;;;;;5074233;28;20563;-78
2022/03/31 07:14:01;;;;;;;23.23;3.33;;;17.80;99.90;;;;;;5076799;28;20197;-77
2022/03/31 07:16:31;;;;;;;24.27;3.25;;;17.80;99.90;;;;;;5080402;28;20560;-78
2022/03/31 07:19:03;;;;;;;21.52;2.45;;;17.90;99.90;;;;;;5067306;28;20283;-81
2022/03/31 07:21:34;;;;;;;21.42;2.90;;;18.00;99.90;;;;;;5084140;28;20185;-80
2022/03/31 07:24:04;;;;;;;19.45;3.03;;;18.10;99.90;;;;;;5074467;28;20204;-81
2022/03/31 07:26:37;;;;;;;16.60;2.65;;;18.20;99.90;;;;;;5072436;28;20185;-80
2022/03/31 07:29:09;;;;;;;17.10;2.60;;;18.40;99.90;;;;;;5076800;28;20186;-80
2022/03/31 07:31:39;;;;;;;17.35;2.67;;;18.50;99.90;;;;;;5066023;28;20639;-77
2022/03/31 07:34:10;;;;;;;16.73;3.05;;;18.50;99.90;;;;;;5080037;28;20193;-76
2022/03/31 07:36:40;;;;;;;16.75;2.45;;;18.50;99.90;;;;;;5063463;28;20597;-82
2022/03/31 07:39:11;;;;;;;23.23;2.95;;;18.50;99.90;;;;;;5072062;28;20262;-79
2022/03/31 07:41:44;;;;;;;23.58;2.90;;;18.50;99.90;;;;;;5071696;28;20243;-79
2022/03/31 07:44:14;;;;;;;13.57;2.60;;;18.50;99.90;;;;;;5067088;28;20185;-81
2022/03/31 07:46:46;;;;;;;15.65;2.47;;;18.60;99.90;;;;;;5073711;28;20192;-80
2022/03/31 07:49:16;;;;;;;14.95;2.40;;;18.60;99.90;;;;;;5076205;28;20239;-78
2022/03/31 07:51:47;;;;;;;12.18;2.40;;;18.60;99.90;;;;;;5071438;28;20193;-78
2022/03/31 07:54:18;;;;;;;13.50;2.28;;;18.70;99.90;;;;;;5074717;28;20188;-80
2022/03/31 07:56:50;;;;;;;18.63;8.20;;;18.60;99.90;;;;;;5069537;28;20627;-79
2022/03/31 07:59:25;;;;;;;15.13;3.90;;;18.60;99.90;;;;;;5072241;28;20272;-82
2022/03/31 08:01:56;;;;;;;13.82;3.05;;;18.60;99.90;;;;;;5082732;28;20456;-79
2022/03/31 08:04:27;;;;;;;11.77;2.50;;;18.80;99.90;;;;;;5071663;28;20211;-79
2022/03/31 08:06:58;;;;;;;18.08;2.60;;;18.70;99.90;;;;;;5074236;28;20197;-81
2022/03/31 08:09:28;;;;;;;16.52;2.72;;;18.60;99.90;;;;;;5078265;28;20188;-80
2022/03/31 08:12:01;;;;;;;12.93;2.60;;;18.60;99.90;;;;;;5076237;28;20193;-78
2022/03/31 08:14:35;;;;;;;15.02;2.42;;;18.60;99.90;;;;;;5084233;28;20180;-80
2022/03/31 08:17:06;;;;;;;18.10;2.92;;;18.60;99.90;;;;;;5073626;28;20192;-79
2022/03/31 08:19:36;;;;;;;16.13;2.63;;;18.60;99.90;;;;;;5077077;28;20560;-78
2022/03/31 08:22:07;;;;;;;11.50;2.00;;;18.60;99.90;;;;;;5065118;28;20224;-73
2022/03/31 08:24:38;;;;;;;15.38;1.90;;;18.70;99.90;;;;;;5077838;28;20185;-73
2022/03/31 08:27:10;;;;;;;14.18;2.65;;;18.70;99.90;;;;;;5072255;28;20212;-76
2022/03/31 08:29:41;;;;;;;16.58;3.00;;;18.60;99.90;;;;;;5081256;28;20181;-74
2022/03/31 08:32:12;;;;;;;14.63;2.20;;;18.50;99.90;;;;;;5072526;28;20940;-75
2022/03/31 08:34:43;;;;;;;14.25;2.47;;;18.50;99.90;;;;;;5066446;28;20221;-79
2022/03/31 08:37:14;;;;;;;10.73;1.75;;;18.30;99.90;;;;;;5069093;28;20666;-76
2022/03/31 08:39:45;;;;;;;11.18;2.13;;;18.50;99.90;;;;;;5068947;28;20584;-74
2022/03/31 08:42:17;;;;;;;8.95;1.63;;;18.50;99.90;;;;;;5069275;28;20197;-76
2022/03/31 08:44:49;;;;;;;7.43;1.50;;;18.50;99.90;;;;;;5071301;28;20183;-76
2022/03/31 08:47:21;;;;;;;9.70;1.80;;;18.50;99.90;;;;;;5067008;28;20189;-74
2022/03/31 08:49:55;;;;;;;11.48;2.00;;;18.50;99.90;;;;;;5059651;28;20243;-74
2022/03/31 08:52:26;;;;;;;11.50;2.20;;;18.50;99.90;;;;;;5068388;28;20224;-74
2022/03/31 08:54:57;;;;;;;12.25;2.08;;;18.40;99.90;;;;;;5065864;28;20222;-73
2022/03/31 08:57:40;;;;;;;11.38;1.85;;;18.40;99.90;;;;;;5065354;28;20211;-73
2022/03/31 09:00:12;;;;;;;11.45;1.83;;;18.40;99.90;;;;;;5071761;28;20250;-72
2022/03/31 09:02:53;;;;;;;12.40;2.03;;;18.40;99.90;;;;;;5075230;28;20192;-74
2022/03/31 09:05:24;;;;;;;8.88;1.90;;;18.40;99.90;;;;;;5079386;28;20238;-73
2022/03/31 09:08:02;;;;;;;9.95;1.67;;;18.40;99.90;;;;;;5073148;28;20240;-75
2022/03/31 09:10:35;;;;;;;13.27;1.83;;;18.40;99.90;;;;;;5085584;28;20196;-73
2022/03/31 09:13:19;;;;;;;10.40;1.63;;;18.50;99.90;;;;;;5067384;28;20225;-73
2022/03/31 09:15:56;;;;;;;11.52;2.03;;;18.50;99.90;;;;;;5075129;28;20182;-73
2022/03/31 09:18:28;;;;;;;11.80;2.67;;;18.50;99.90;;;;;;5068688;28;20192;-75
2022/03/31 09:21:00;;;;;;;13.25;1.90;;;18.50;99.90;;;;;;5080939;28;20197;-73
2022/03/31 09:23:33;;;;;;;8.77;1.58;;;18.50;99.90;;;;;;5072998;28;20192;-74
2022/03/31 09:26:08;;;;;;;12.15;1.83;;;18.60;99.90;;;;;;5083953;28;20229;-76
2022/03/31 09:28:41;;;;;;;14.70;2.05;;;18.60;99.90;;;;;;5084128;28;20191;-75
2022/03/31 09:31:12;;;;;;;14.23;2.03;;;18.70;99.90;;;;;;5089309;28;20246;-73
2022/03/31 09:33:48;;;;;;;12.68;2.47;;;18.70;99.90;;;;;;5086517;28;20217;-74
2022/03/31 09:36:21;;;;;;;14.23;2.10;;;18.60;99.90;;;;;;5076474;28;20197;-73
2022/03/31 09:38:56;;;;;;;15.18;2.10;;;18.50;99.90;;;;;;5080109;28;20235;-72
2022/03/31 09:41:29;;;;;;;18.02;2.60;;;18.40;99.90;;;;;;5075989;28;20674;-72
2022/03/31 09:44:04;;;;;;;18.52;2.88;;;18.20;99.90;;;;;;5078375;28;20186;-73
2022/03/31 09:46:38;;;;;;;17.27;2.78;;;18.20;99.90;;;;;;5083239;28;20199;-72
2022/03/31 09:49:16;;;;;;;12.93;2.50;;;18.10;99.90;;;;;;5085296;28;20193;-77
2022/03/31 09:51:49;;;;;;;17.40;2.42;;;18.10;99.90;;;;;;5088063;28;20192;-75
2022/03/31 09:54:20;;;;;;;11.88;2.42;;;18.10;99.90;;;;;;5078769;28;20618;-75
2022/03/31 09:56:51;;;;;;;12.55;2.17;;;18.00;99.90;;;;;;5069412;28;20249;-76
2022/03/31 09:59:26;;;;;;;13.88;2.15;;;18.00;99.90;;;;;;5077100;28;20184;-76
2022/03/31 10:01:56;;;;;;;12.38;2.28;;;18.00;99.90;;;;;;5071972;28;20188;-76
2022/03/31 10:04:28;;;;;;;17.17;2.42;;;18.00;99.90;;;;;;5065194;28;20193;-77
2022/03/31 10:07:00;;;;;;;20.50;2.58;;;18.00;99.90;;;;;;5079793;28;20298;-77
2022/03/31 10:09:32;;;;;;;15.63;2.53;;;18.00;99.90;;;;;;5068227;28;20656;-77
2022/03/31 10:12:10;;;;;;;13.27;2.10;;;17.90;99.90;;;;;;5075236;28;20193;-78
2022/03/31 10:14:51;;;;;;;9.93;2.03;;;17.90;99.90;;;;;;5070094;28;20208;-77
2022/03/31 10:17:28;;;;;;;16.50;2.33;;;18.00;99.90;;;;;;5070392;28;20185;-76
2022/03/31 10:20:10;;;;;;;15.52;2.10;;;18.10;99.90;;;;;;5072519;28;20196;-77
2022/03/31 10:25:38;;;;;;;19.95;2.72;;;18.10;99.90;;;;;;5082177;28;20233;-76
2022/03/31 10:28:13;;;;;;;16.17;2.25;;;18.00;99.90;;;;;;5085183;28;20192;-77
2022/03/31 10:30:57;;;;;;;13.63;2.03;;;17.80;99.90;;;;;;5070199;28;20193;-73
2022/03/31 10:33:34;;;;;;;9.95;1.92;;;17.70;99.90;;;;;;5080183;28;20219;-76
2022/03/31 10:36:09;;;;;;;9.90;2.42;;;17.50;99.90;;;;;;5082027;28;20188;-74
2022/03/31 10:38:41;;;;;;;13.63;2.15;;;17.50;99.90;;;;;;5071183;28;20235;-77
2022/03/31 10:41:13;;;;;;;14.02;2.20;;;17.40;99.90;;;;;;5072939;28;20200;-73
2022/03/31 10:43:52;;;;;;;10.90;2.25;;;17.30;99.90;;;;;;5072465;28;20234;-73
2022/03/31 10:46:25;;;;;;;12.02;2.45;;;17.20;99.90;;;;;;5072675;28;20632;-72
2022/03/31 10:48:57;;;;;;;11.90;2.20;;;17.20;99.90;;;;;;5064131;28;20189;-74
2022/03/31 10:51:46;;;;;;;15.43;2.38;;;17.20;99.90;;;;;;5075475;28;20201;-72
2022/03/31 10:54:29;;;;;;;11.90;2.00;;;17.20;99.90;;;;;;5074740;28;20305;-73
2022/03/31 10:57:11;;;;;;;11.55;2.05;;;17.20;99.90;;;;;;5075032;28;20188;-72
2022/03/31 10:59:43;;;;;;;11.38;2.20;;;17.20;99.90;;;;;;5074460;28;20562;-72
2022/03/31 11:02:18;;;;;;;9.20;1.70;;;17.20;99.90;;;;;;5069557;28;20189;-74
2022/03/31 11:04:50;;;;;;;13.85;1.90;;;17.20;99.90;;;;;;5074552;28;20185;-74
2022/03/31 11:07:24;;;;;;;17.75;2.20;;;17.20;99.90;;;;;;5072782;28;20186;-76
2022/03/31 11:10:06;;;;;;;14.23;1.77;;;17.20;99.90;;;;;;5079534;28;20204;-73
2022/03/31 11:12:37;;;;;;;11.25;2.17;;;17.10;99.90;;;;;;5080880;28;20192;-74
2022/03/31 11:15:10;;;;;;;10.77;1.90;;;17.20;99.90;;;;;;5086956;28;20640;-73
2022/03/31 11:17:46;;;;;;;10.20;2.15;;;17.10;99.90;;;;;;5088155;28;20188;-76
2022/03/31 11:20:19;;;;;;;16.63;2.30;;;17.10;99.90;;;;;;5077628;28;20639;-72
2022/03/31 11:22:51;;;;;;;16.15;2.13;;;17.10;99.90;;;;;;5081577;28;20189;-76
2022/03/31 11:25:23;;;;;;;16.95;2.40;;;17.10;99.90;;;;;;5084772;28;20245;-73
2022/03/31 11:27:56;;;;;;;9.60;2.00;;;17.10;99.90;;;;;;5084381;28;20195;-73
2022/03/31 11:30:32;;;;;;;17.40;2.53;;;17.10;99.90;;;;;;5066903;28;20272;-75
2022/03/31 11:33:05;;;;;;;15.98;2.10;;;17.10;99.90;;;;;;5089506;28;20188;-73
2022/03/31 11:35:35;;;;;;;14.98;1.90;;;17.10;99.90;;;;;;5067016;28;20189;-74
2022/03/31 11:38:07;;;;;;;14.05;2.40;;;17.10;99.90;;;;;;5071417;28;20228;-75
2022/03/31 11:40:43;;;;;;;13.32;2.20;;;17.10;99.90;;;;;;5064936;28;20683;-75
2022/03/31 11:43:15;;;;;;;11.32;1.95;;;17.10;99.90;;;;;;5081550;28;20188;-73
2022/03/31 11:45:48;;;;;;;14.95;2.60;;;17.20;99.90;;;;;;5076124;28;20221;-73
2022/03/31 11:48:22;;;;;;;11.90;2.00;;;17.10;99.90;;;;;;5081051;28;20542;-73
2022/03/31 11:50:54;;;;;;;12.15;2.10;;;17.10;99.90;;;;;;5070586;28;20246;-73
2022/03/31 11:53:27;;;;;;;10.75;1.60;;;17.10;99.90;;;;;;5078255;28;20212;-74
2022/03/31 11:56:02;;;;;;;11.35;2.00;;;17.10;99.90;;;;;;5074185;28;20232;-75
2022/03/31 11:58:35;;;;;;;9.35;2.00;;;17.00;99.90;;;;;;5076213;28;20200;-73
2022/03/31 12:01:06;;;;;;;9.43;1.90;;;17.00;99.90;;;;;;5079649;28;20191;-73
2022/03/31 12:03:42;;;;;;;11.15;2.10;;;17.00;99.90;;;;;;5069944;28;20262;-74
2022/03/31 12:06:15;;;;;;;10.68;1.67;;;17.00;99.90;;;;;;5077051;28;20248;-74
2022/03/31 12:08:46;;;;;;;8.35;1.77;;;17.00;99.90;;;;;;5076150;28;20200;-77
2022/03/31 12:11:17;;;;;;;11.07;1.55;;;17.00;99.90;;;;;;5079471;28;20690;-74
2022/03/31 12:13:52;;;;;;;8.73;1.80;;;17.00;99.90;;;;;;5084576;28;20599;-74
2022/03/31 12:16:24;;;;;;;11.13;1.98;;;16.90;99.90;;;;;;5072996;28;20184;-73
2022/03/31 12:19:01;;;;;;;13.32;1.80;;;16.90;99.90;;;;;;5078080;28;20192;-73
2022/03/31 12:21:32;;;;;;;9.00;1.42;;;16.90;99.90;;;;;;5089391;28;20180;-73
2022/03/31 12:24:09;;;;;;;10.43;1.48;;;16.80;99.90;;;;;;5074519;28;20185;-74
2022/03/31 12:26:40;;;;;;;7.80;1.52;;;16.80;99.90;;;;;;5072625;28;20246;-73
2022/03/31 12:29:19;;;;;;;7.50;1.65;;;16.70;99.90;;;;;;5080757;28;20193;-74
2022/03/31 12:32:01;;;;;;;5.60;1.25;;;16.70;99.90;;;;;;5072927;28;20607;-74
2022/03/31 12:34:34;;;;;;;5.78;1.33;;;16.70;99.90;;;;;;5075457;28;20216;-74
2022/03/31 12:37:05;;;;;;;11.23;1.58;;;16.70;99.90;;;;;;5082036;28;20191;-74
2022/03/31 12:39:44;;;;;;;10.43;1.50;;;16.70;99.90;;;;;;5081195;28;20711;-74
2022/03/31 12:42:16;;;;;;;11.65;1.20;;;16.70;99.90;;;;;;5085585;28;20198;-74
2022/03/31 12:44:47;;;;;;;7.97;1.50;;;16.70;99.90;;;;;;5083449;28;20225;-74
2022/03/31 12:47:24;;;;;;;8.88;1.50;;;16.70;99.90;;;;;;5076266;28;20220;-73
2022/03/31 12:49:57;;;;;;;11.52;1.80;;;16.70;99.90;;;;;;5073585;28;20214;-72
2022/03/31 12:52:28;;;;;;;10.32;1.67;;;16.70;99.90;;;;;;5084691;28;20196;-73
2022/03/31 12:54:59;;;;;;;8.27;1.50;;;16.60;99.90;;;;;;5077877;28;20285;-73
2022/03/31 12:57:31;;;;;;;8.13;1.42;;;16.70;99.90;;;;;;5074933;28;20196;-73
2022/03/31 13:00:09;;;;;;;7.05;1.50;;;16.70;99.90;;;;;;5073784;28;20309;-73
2022/03/31 13:02:40;;;;;;;8.77;1.55;;;16.70;99.90;;;;;;5071924;28;20644;-75
2022/03/31 13:05:12;;;;;;;9.82;1.80;;;16.70;99.90;;;;;;5075061;28;20234;-73
2022/03/31 13:07:46;;;;;;;11.88;1.63;;;16.70;99.90;;;;;;5073982;28;20193;-75
2022/03/31 13:10:17;;;;;;;11.85;1.67;;;16.70;99.90;;;;;;5078293;28;20243;-73